createdAt,value
2023-05-24T00:01:57.604Z,10.98
2023-05-24T00:04:30.586Z,10.99
2023-05-24T00:06:58.279Z,10.92
2023-05-24T00:09:25.243Z,10.89
2023-05-24T00:11:51.999Z,10.87
2023-05-24T00:14:18.771Z,10.77
2023-05-24T00:16:46.647Z,10.72
2023-05-24T00:19:18.471Z,10.55
2023-05-24T00:21:46.120Z,10.45
2023-05-24T00:24:13.134Z,10.27
2023-05-24T00:26:40.232Z,10.19
2023-05-24T00:29:07.020Z,10.16
2023-05-24T00:31:34.286Z,10.12
2023-05-24T00:34:01.040Z,10.10
2023-05-24T00:36:27.825Z,10.09
2023-05-24T00:38:54.615Z,10.02
2023-05-24T00:41:21.403Z,9.99
2023-05-24T00:43:48.138Z,10.00
2023-05-24T00:46:18.171Z,9.85
2023-05-24T00:48:46.087Z,9.81
2023-05-24T00:51:14.871Z,9.79
2023-05-24T00:53:49.043Z,9.76
2023-05-24T00:56:17.602Z,9.71
2023-05-24T00:58:45.215Z,9.62
2023-05-24T01:01:12.903Z,9.69
2023-05-24T01:03:40.305Z,9.75
2023-05-24T01:06:08.874Z,9.75
2023-05-24T01:08:58.927Z,9.72
2023-05-24T01:11:53.592Z,9.63
2023-05-24T01:14:36.515Z,9.61
2023-05-24T01:17:34.762Z,9.61
2023-05-24T01:20:09.177Z,9.68
2023-05-24T01:22:52.408Z,9.73
2023-05-24T01:25:25.077Z,9.80
2023-05-24T01:27:52.502Z,9.85
2023-05-24T01:30:20.101Z,9.89
2023-05-24T01:32:46.995Z,9.81
2023-05-24T01:35:13.758Z,9.71
2023-05-24T01:37:40.511Z,9.65
2023-05-24T01:40:08.532Z,9.70
2023-05-24T01:42:45.884Z,9.79
2023-05-24T01:45:26.003Z,9.81
2023-05-24T01:48:23.119Z,9.85
2023-05-24T01:50:59.105Z,9.88
2023-05-24T01:53:32.829Z,9.83
2023-05-24T01:56:02.494Z,9.82
2023-05-24T01:58:31.316Z,9.78
2023-05-24T02:00:58.378Z,9.76
2023-05-24T02:03:25.338Z,9.68
2023-05-24T02:05:52.117Z,9.50
2023-05-24T02:08:18.858Z,9.40
2023-05-24T02:10:45.726Z,9.39
2023-05-24T02:13:12.469Z,9.27
2023-05-24T02:15:41.934Z,9.22
2023-05-24T02:18:08.850Z,9.14
2023-05-24T02:20:37.290Z,9.10
2023-05-24T02:23:04.716Z,9.02
2023-05-24T02:25:33.117Z,8.99
2023-05-24T02:28:00.609Z,8.93
2023-05-24T02:30:27.602Z,8.94
2023-05-24T02:32:54.391Z,8.93
2023-05-24T02:35:21.312Z,8.89
2023-05-24T02:37:48.138Z,8.82
2023-05-24T02:40:15.208Z,8.74
2023-05-24T02:42:42.022Z,8.70
2023-05-24T02:45:09.147Z,8.72
2023-05-24T02:47:35.954Z,8.73
2023-05-24T02:50:02.839Z,8.72
2023-05-24T02:52:29.610Z,8.67
2023-05-24T02:54:56.383Z,8.64
2023-05-24T02:57:23.223Z,8.60
2023-05-24T02:59:50.010Z,8.55
2023-05-24T03:02:18.140Z,8.46
2023-05-24T03:04:44.855Z,8.43
2023-05-24T03:07:11.591Z,8.40
2023-05-24T03:09:38.364Z,8.38
2023-05-24T03:12:05.917Z,8.39
2023-05-24T03:14:32.647Z,8.35
2023-05-24T03:16:59.364Z,8.34
2023-05-24T03:19:26.131Z,8.35
2023-05-24T03:21:52.865Z,8.35
2023-05-24T03:24:20.777Z,8.32
2023-05-24T03:26:47.858Z,8.27
2023-05-24T03:29:14.631Z,8.28
2023-05-24T03:31:41.430Z,8.29
2023-05-24T03:34:08.164Z,8.26
2023-05-24T03:36:34.969Z,8.20
2023-05-24T03:39:03.939Z,8.16
2023-05-24T03:41:31.351Z,8.12
2023-05-24T03:43:58.095Z,8.11
2023-05-24T03:46:24.936Z,8.09
2023-05-24T03:48:51.711Z,8.10
2023-05-24T03:51:18.495Z,8.09
2023-05-24T03:53:45.283Z,8.11
2023-05-24T03:56:12.053Z,8.12
2023-05-24T03:58:38.804Z,8.13
2023-05-24T04:01:05.573Z,8.15
2023-05-24T04:03:34.272Z,8.17
2023-05-24T04:06:01.196Z,8.23
2023-05-24T04:08:27.931Z,8.25
2023-05-24T04:10:54.655Z,8.28
2023-05-24T04:13:21.356Z,8.30
2023-05-24T04:15:48.218Z,8.34
2023-05-24T04:18:15.033Z,8.35
2023-05-24T04:20:42.089Z,8.32
2023-05-24T04:23:09.043Z,8.30
2023-05-24T04:25:35.829Z,8.38
2023-05-24T04:28:06.262Z,8.44
2023-05-24T04:30:33.052Z,8.45
2023-05-24T04:32:59.933Z,8.47
2023-05-24T04:35:26.738Z,8.52
2023-05-24T04:37:53.613Z,8.56
2023-05-24T04:40:23.288Z,8.63
2023-05-24T04:42:50.850Z,8.73
2023-05-24T04:45:17.692Z,8.83
2023-05-24T04:47:44.542Z,8.92
2023-05-24T04:50:11.312Z,8.99
2023-05-24T04:52:38.113Z,9.05
2023-05-24T04:55:05.205Z,9.13
2023-05-24T04:57:31.933Z,9.23
2023-05-24T04:59:59.003Z,9.29
2023-05-24T05:02:27.221Z,9.36
2023-05-24T05:04:54.020Z,9.42
2023-05-24T05:07:20.733Z,9.52
2023-05-24T05:09:47.768Z,9.55
2023-05-24T05:12:14.519Z,9.65
2023-05-24T05:14:41.333Z,9.70
2023-05-24T05:17:08.187Z,9.76
2023-05-24T05:19:35.834Z,9.85
2023-05-24T05:22:02.672Z,9.94
2023-05-24T05:24:29.506Z,10.00
2023-05-24T05:26:56.467Z,10.05
2023-05-24T05:29:24.541Z,10.10
2023-05-24T05:31:51.631Z,10.16
2023-05-24T05:34:19.616Z,10.24
2023-05-24T05:36:46.430Z,10.31
2023-05-24T05:39:13.233Z,10.32
2023-05-24T05:41:40.619Z,10.44
2023-05-24T05:44:07.312Z,10.49
2023-05-24T05:46:34.061Z,10.60
2023-05-24T05:49:00.920Z,10.66
2023-05-24T05:51:27.702Z,10.69
2023-05-24T05:53:54.505Z,10.72
2023-05-24T05:56:21.339Z,10.84
2023-05-24T05:58:48.100Z,10.93
2023-05-24T06:01:16.095Z,10.99
2023-05-24T06:03:43.015Z,11.11
2023-05-24T06:06:09.935Z,11.14
2023-05-24T06:08:36.659Z,11.23
2023-05-24T06:11:03.554Z,11.30
2023-05-24T06:13:31.419Z,11.39
2023-05-24T06:15:59.036Z,11.42
2023-05-24T06:18:27.672Z,11.54
2023-05-24T06:20:54.496Z,11.66
2023-05-24T06:23:21.747Z,11.76
2023-05-24T06:25:48.617Z,11.95
2023-05-24T06:28:15.459Z,12.10
2023-05-24T06:30:42.551Z,12.15
2023-05-24T06:33:09.508Z,12.14
2023-05-24T06:35:36.240Z,12.11
2023-05-24T06:38:02.986Z,12.22
2023-05-24T06:40:29.728Z,12.25
2023-05-24T06:42:58.702Z,12.23
2023-05-24T06:45:25.551Z,12.34
2023-05-24T06:47:52.425Z,12.49
2023-05-24T06:50:19.573Z,12.43
2023-05-24T06:52:46.364Z,12.62
2023-05-24T06:55:13.134Z,12.72
2023-05-24T06:57:40.166Z,12.63
2023-05-24T07:00:12.103Z,12.64
2023-05-24T07:02:39.520Z,12.54
2023-05-24T07:05:12.219Z,12.66
2023-05-24T07:07:40.201Z,12.86
2023-05-24T07:10:13.834Z,13.13
2023-05-24T07:12:40.950Z,13.25
2023-05-24T07:15:10.020Z,13.19
2023-05-24T07:17:37.228Z,13.38
2023-05-24T07:20:07.602Z,13.42
2023-05-24T07:22:34.577Z,13.56
2023-05-24T07:25:01.780Z,13.49
2023-05-24T07:27:28.801Z,13.23
2023-05-24T07:29:56.199Z,13.39
2023-05-24T07:32:23.615Z,13.14
2023-05-24T07:34:50.620Z,13.04
2023-05-24T07:37:17.781Z,13.13
2023-05-24T07:39:44.869Z,13.28
2023-05-24T07:42:12.108Z,13.20
2023-05-24T07:44:39.317Z,13.27
2023-05-24T07:47:06.530Z,13.22
2023-05-24T07:49:33.441Z,13.22
2023-05-24T07:52:00.380Z,12.90
2023-05-24T07:54:27.098Z,13.06
2023-05-24T07:56:53.905Z,13.28
2023-05-24T07:59:20.798Z,13.42
2023-05-24T08:01:48.222Z,13.42
2023-05-24T08:04:15.019Z,13.39
2023-05-24T08:06:41.934Z,13.52
2023-05-24T08:09:09.240Z,13.76
2023-05-24T08:11:36.179Z,13.84
2023-05-24T08:14:03.806Z,14.00
2023-05-24T08:16:32.085Z,14.07
2023-05-24T08:18:59.617Z,14.09
2023-05-24T08:21:27.904Z,14.13
2023-05-24T08:23:55.030Z,14.34
2023-05-24T08:26:22.267Z,14.37
2023-05-24T08:28:49.042Z,14.36
2023-05-24T08:31:16.660Z,14.41
2023-05-24T08:33:44.259Z,14.21
2023-05-24T08:36:11.047Z,14.03
2023-05-24T08:38:38.268Z,13.90
2023-05-24T08:41:09.537Z,14.01
2023-05-24T08:43:38.096Z,13.98
2023-05-24T08:46:05.978Z,13.93
2023-05-24T08:48:34.088Z,13.87
2023-05-24T08:51:00.986Z,13.89
2023-05-24T08:53:28.159Z,14.03
2023-05-24T08:55:56.232Z,14.11
2023-05-24T08:58:23.339Z,13.98
2023-05-24T09:00:50.114Z,14.05
2023-05-24T09:03:18.765Z,14.30
2023-05-24T09:05:46.298Z,14.45
2023-05-24T09:08:18.268Z,14.63
2023-05-24T09:10:55.087Z,14.46
2023-05-24T09:13:24.991Z,14.45
2023-05-24T09:15:52.131Z,14.49
2023-05-24T09:18:19.471Z,14.32
2023-05-24T09:20:46.577Z,14.27
2023-05-24T09:23:14.764Z,14.49
2023-05-24T09:25:46.226Z,14.58
2023-05-24T09:28:15.170Z,14.67
2023-05-24T09:30:46.354Z,14.77
2023-05-24T09:33:13.694Z,14.74
2023-05-24T09:35:48.245Z,14.77
2023-05-24T09:38:19.108Z,14.81
2023-05-24T09:40:46.931Z,14.88
2023-05-24T09:43:13.836Z,14.98
2023-05-24T09:45:46.907Z,15.11
2023-05-24T09:48:15.351Z,15.06
2023-05-24T09:50:42.590Z,15.18
2023-05-24T09:53:09.999Z,15.27
2023-05-24T09:55:39.131Z,14.96
2023-05-24T09:58:09.022Z,15.21
2023-05-24T10:00:40.329Z,15.26
2023-05-24T10:03:10.844Z,15.18
2023-05-24T10:05:39.893Z,15.35
2023-05-24T10:08:06.973Z,15.53
2023-05-24T10:10:34.193Z,15.59
2023-05-24T10:13:02.330Z,15.59
2023-05-24T10:15:30.333Z,15.45
2023-05-24T10:18:00.671Z,15.60
2023-05-24T10:20:28.684Z,15.63
2023-05-24T10:23:03.605Z,15.71
2023-05-24T10:25:33.603Z,15.71
2023-05-24T10:28:10.260Z,15.85
2023-05-24T10:31:16.161Z,15.87
2023-05-24T10:33:45.406Z,15.96
2023-05-24T10:36:14.205Z,16.02
2023-05-24T10:38:41.256Z,16.14
2023-05-24T10:41:08.963Z,16.09
2023-05-24T10:43:36.707Z,16.11
2023-05-24T10:46:05.616Z,16.18
2023-05-24T10:48:33.758Z,16.23
2023-05-24T10:51:02.504Z,16.37
2023-05-24T10:53:29.384Z,16.33
2023-05-24T10:56:01.249Z,16.37
2023-05-24T10:58:35.467Z,16.39
2023-05-24T11:01:03.129Z,16.49
2023-05-24T11:03:33.752Z,16.45
2023-05-24T11:06:00.699Z,16.52
2023-05-24T11:08:33.559Z,16.55
2023-05-24T11:13:41.070Z,16.52
2023-05-24T11:16:08.113Z,16.55
2023-05-24T11:18:38.742Z,16.54
2023-05-24T11:21:08.876Z,16.64
2023-05-24T11:23:38.340Z,16.78
2023-05-24T11:26:07.413Z,16.71
2023-05-24T11:28:37.757Z,16.81
2023-05-24T11:31:09.937Z,16.95
2023-05-24T11:33:42.740Z,17.10
2023-05-24T11:36:09.955Z,17.16
2023-05-24T11:38:37.625Z,17.16
2023-05-24T11:41:05.427Z,17.24
2023-05-24T11:43:35.355Z,17.24
2023-05-24T11:46:02.781Z,17.34
2023-05-24T11:48:30.721Z,17.23
2023-05-24T11:50:58.102Z,17.32
2023-05-24T11:53:25.041Z,17.36
2023-05-24T11:55:54.530Z,17.42
2023-05-24T11:58:46.367Z,17.43
2023-05-24T12:01:27.456Z,17.50
2023-05-24T12:03:55.386Z,17.60
2023-05-24T12:06:23.113Z,17.65
2023-05-24T12:08:50.087Z,17.58
2023-05-24T12:11:17.580Z,17.44
2023-05-24T12:13:45.129Z,17.54
2023-05-24T12:16:14.178Z,17.61
2023-05-24T12:18:48.502Z,17.58
2023-05-24T12:21:23.029Z,17.73
2023-05-24T12:23:50.011Z,17.65
2023-05-24T12:26:20.961Z,17.74
2023-05-24T12:28:53.936Z,17.84
2023-05-24T12:31:21.429Z,17.70
2023-05-24T12:33:48.792Z,17.83
2023-05-24T12:36:16.267Z,17.93
2023-05-24T12:38:43.052Z,17.91
2023-05-24T12:41:13.928Z,17.99
2023-05-24T12:43:44.711Z,18.07
2023-05-24T12:46:11.637Z,18.04
2023-05-24T12:48:38.657Z,18.17
2023-05-24T12:51:06.420Z,18.20
2023-05-24T12:53:33.241Z,18.31
2023-05-24T12:56:03.776Z,18.43
2023-05-24T12:58:30.904Z,18.42
2023-05-24T13:00:58.014Z,18.39
2023-05-24T13:03:25.191Z,18.17
2023-05-24T13:05:52.133Z,18.21
2023-05-24T13:08:19.094Z,18.18
2023-05-24T13:10:46.056Z,18.22
2023-05-24T13:13:15.089Z,18.30
2023-05-24T13:15:44.695Z,18.37
2023-05-24T13:18:11.697Z,18.44
2023-05-24T13:20:38.856Z,18.41
2023-05-24T13:23:06.208Z,18.45
2023-05-24T13:25:32.954Z,18.42
2023-05-24T13:28:01.782Z,18.38
2023-05-24T13:30:28.654Z,18.50
2023-05-24T13:32:56.919Z,18.69
2023-05-24T13:35:24.041Z,18.87
2023-05-24T13:37:53.064Z,18.99
2023-05-24T13:40:20.826Z,19.01
2023-05-24T13:42:48.063Z,18.73
2023-05-24T13:45:15.481Z,18.92
2023-05-24T13:47:43.340Z,18.60
2023-05-24T13:50:11.520Z,18.87
2023-05-24T13:52:38.670Z,18.80
2023-05-24T13:55:06.218Z,18.79
2023-05-24T13:57:49.744Z,18.83
2023-05-24T14:00:18.806Z,18.54
2023-05-24T14:02:45.618Z,18.42
2023-05-24T14:07:42.573Z,18.39
2023-05-24T14:10:09.827Z,18.27
2023-05-24T14:12:36.662Z,18.13
2023-05-24T14:15:05.097Z,18.23
2023-05-24T14:17:32.058Z,18.30
2023-05-24T14:19:58.837Z,18.30
2023-05-24T14:22:26.203Z,18.34
2023-05-24T14:24:53.600Z,18.30
2023-05-24T14:27:23.232Z,18.19
2023-05-24T14:29:51.637Z,17.98
2023-05-24T14:32:18.385Z,17.97
2023-05-24T14:34:45.538Z,17.99
2023-05-24T14:37:12.278Z,18.15
2023-05-24T14:39:39.078Z,18.22
2023-05-24T14:42:06.337Z,18.24
2023-05-24T14:44:33.096Z,18.16
2023-05-24T14:47:00.972Z,18.30
2023-05-24T14:49:27.757Z,18.25
2023-05-24T14:51:54.759Z,17.84
2023-05-24T14:54:21.887Z,17.89
2023-05-24T14:56:50.321Z,17.92
2023-05-24T14:59:17.165Z,17.93
2023-05-24T15:01:50.052Z,17.80
2023-05-24T15:04:19.002Z,17.94
2023-05-24T15:06:46.380Z,17.89
2023-05-24T15:09:13.624Z,17.82
2023-05-24T15:11:40.530Z,17.80
2023-05-24T15:14:07.421Z,17.73
2023-05-24T15:16:34.536Z,17.87
2023-05-24T15:19:01.460Z,17.89
2023-05-24T15:21:28.183Z,17.82
2023-05-24T15:23:55.113Z,17.72
2023-05-24T15:26:22.806Z,17.77
2023-05-24T15:28:49.743Z,17.91
2023-05-24T15:31:16.829Z,17.80
2023-05-24T15:33:45.124Z,17.88
2023-05-24T15:36:15.584Z,17.95
2023-05-24T15:38:43.104Z,17.82
2023-05-24T15:41:09.917Z,17.77
2023-05-24T15:43:37.709Z,17.77
2023-05-24T15:46:04.807Z,17.68
2023-05-24T15:48:32.891Z,17.80
2023-05-24T15:51:46.354Z,17.69
2023-05-24T15:53:49.958Z,17.86
2023-05-24T15:56:16.934Z,17.77
2023-05-24T15:58:43.789Z,17.58
2023-05-24T16:01:10.803Z,17.63
2023-05-24T16:03:38.415Z,17.46
2023-05-24T16:06:07.068Z,17.63
2023-05-24T16:08:34.112Z,17.68
2023-05-24T16:11:08.659Z,17.56
2023-05-24T16:13:46.389Z,17.56
2023-05-24T16:16:13.214Z,17.60
2023-05-24T16:18:40.003Z,17.61
2023-05-24T16:21:06.898Z,17.63
2023-05-24T16:23:33.718Z,17.48
2023-05-24T16:26:00.789Z,17.36
2023-05-24T16:28:28.112Z,17.23
2023-05-24T16:30:56.435Z,17.31
2023-05-24T16:33:24.851Z,17.46
2023-05-24T16:35:55.953Z,17.40
2023-05-24T16:38:24.072Z,17.38
2023-05-24T16:40:54.174Z,17.33
2023-05-24T16:43:21.682Z,17.07
2023-05-24T16:45:50.977Z,17.20
2023-05-24T16:48:21.659Z,17.33
2023-05-24T16:50:50.471Z,17.14
2023-05-24T16:53:17.310Z,17.14
2023-05-24T16:55:44.436Z,17.19
2023-05-24T16:58:11.294Z,17.32
2023-05-24T17:00:38.057Z,17.23
2023-05-24T17:03:06.635Z,17.05
2023-05-24T17:05:33.537Z,17.14
2023-05-24T17:08:02.912Z,17.12
2023-05-24T17:10:29.702Z,17.10
2023-05-24T17:12:56.469Z,17.09
2023-05-24T17:15:23.218Z,16.88
2023-05-24T17:17:51.661Z,16.99
2023-05-24T17:20:18.620Z,17.09
2023-05-24T17:22:45.390Z,16.95
2023-05-24T17:25:13.548Z,16.94
2023-05-24T17:27:40.316Z,17.07
2023-05-24T17:30:07.677Z,16.87
2023-05-24T17:32:34.504Z,16.88
2023-05-24T17:35:01.267Z,16.93
2023-05-24T17:37:28.058Z,16.71
2023-05-24T17:39:54.787Z,16.80
2023-05-24T17:42:21.817Z,16.79
2023-05-24T17:44:48.574Z,16.78
2023-05-24T17:47:15.336Z,16.66
2023-05-24T17:49:42.081Z,16.84
2023-05-24T17:52:08.808Z,16.46
2023-05-24T17:54:35.570Z,16.77
2023-05-24T17:57:03.072Z,16.67
2023-05-24T17:59:29.957Z,17.39
2023-05-24T18:01:57.080Z,17.34
2023-05-24T18:04:23.820Z,17.71
2023-05-24T18:06:50.620Z,17.86
2023-05-24T18:09:17.415Z,18.03
2023-05-24T18:11:44.316Z,17.73
2023-05-24T18:14:11.335Z,18.20
2023-05-24T18:16:38.215Z,18.18
2023-05-24T18:19:05.055Z,18.32
2023-05-24T18:21:32.580Z,17.79
2023-05-24T18:23:59.370Z,16.89
2023-05-24T18:26:26.377Z,16.16
2023-05-24T18:28:53.121Z,15.83
2023-05-24T18:31:20.499Z,15.88
2023-05-24T18:33:49.748Z,15.53
2023-05-24T18:36:16.636Z,15.32
2023-05-24T18:38:47.465Z,15.17
2023-05-24T18:41:15.515Z,15.17
2023-05-24T18:43:43.193Z,15.23
2023-05-24T18:46:13.607Z,15.29
2023-05-24T18:48:45.266Z,15.09
2023-05-24T18:51:13.614Z,14.97
2023-05-24T18:53:40.644Z,14.83
2023-05-24T18:56:07.456Z,14.44
2023-05-24T18:58:34.272Z,14.45
2023-05-24T19:01:01.258Z,14.28
2023-05-24T19:03:28.380Z,14.21
2023-05-24T19:05:55.194Z,14.39
2023-05-24T19:08:21.958Z,14.45
2023-05-24T19:10:48.792Z,14.46
2023-05-24T19:13:15.836Z,14.33
2023-05-24T19:15:42.881Z,14.21
2023-05-24T19:18:09.878Z,14.07
2023-05-24T19:20:36.835Z,13.96
2023-05-24T19:23:03.667Z,14.27
2023-05-24T19:25:31.380Z,14.08
2023-05-24T19:28:00.505Z,13.91
2023-05-24T19:30:27.859Z,13.84
2023-05-24T19:32:54.786Z,13.61
2023-05-24T19:35:21.698Z,13.58
2023-05-24T19:37:49.587Z,13.55
2023-05-24T19:40:16.546Z,13.53
2023-05-24T19:42:43.433Z,13.41
2023-05-24T19:45:10.666Z,13.37
2023-05-24T19:47:37.486Z,13.53
2023-05-24T19:50:07.141Z,13.34
2023-05-24T19:52:33.890Z,13.31
2023-05-24T19:55:00.710Z,13.17
2023-05-24T19:57:27.587Z,13.11
2023-05-24T19:59:54.359Z,13.14
2023-05-24T20:02:21.221Z,12.94
2023-05-24T20:04:47.936Z,13.03
2023-05-24T20:07:15.258Z,12.99
2023-05-24T20:09:42.097Z,12.98
2023-05-24T20:12:08.963Z,12.86
2023-05-24T20:14:36.072Z,12.81
2023-05-24T20:17:03.077Z,12.88
2023-05-24T20:19:29.822Z,12.81
2023-05-24T20:21:57.304Z,12.78
2023-05-24T20:24:26.987Z,12.88
2023-05-24T20:26:53.768Z,12.84
2023-05-24T20:29:20.491Z,12.74
2023-05-24T20:31:47.479Z,12.75
2023-05-24T20:34:14.855Z,12.77
2023-05-24T20:36:46.397Z,12.59
2023-05-24T20:39:13.335Z,12.65
2023-05-24T20:41:40.099Z,12.55
2023-05-24T20:44:06.887Z,12.50
2023-05-24T20:46:33.976Z,12.54
2023-05-24T20:49:01.211Z,12.51
2023-05-24T20:51:27.981Z,12.48
2023-05-24T20:53:54.888Z,12.48
2023-05-24T20:56:23.297Z,12.41
2023-05-24T20:58:53.117Z,12.56
2023-05-24T21:01:20.957Z,12.44
2023-05-24T21:03:47.891Z,12.53
2023-05-24T21:06:15.177Z,12.54
2023-05-24T21:08:42.929Z,12.53
2023-05-24T21:11:09.823Z,12.51
2023-05-24T21:13:36.612Z,12.50
2023-05-24T21:16:03.674Z,12.50
2023-05-24T21:18:30.599Z,12.40
2023-05-24T21:20:57.358Z,12.36
2023-05-24T21:23:24.080Z,12.33
2023-05-24T21:25:51.039Z,12.32
2023-05-24T21:28:18.306Z,12.44
2023-05-24T21:30:46.356Z,12.34
2023-05-24T21:33:13.227Z,12.38
2023-05-24T21:35:40.019Z,12.31
2023-05-24T21:38:06.982Z,12.30
2023-05-24T21:40:34.292Z,12.27
2023-05-24T21:43:01.150Z,12.24
2023-05-24T21:45:27.895Z,12.28
2023-05-24T21:47:54.751Z,12.24
2023-05-24T21:50:21.564Z,12.24
2023-05-24T21:52:48.403Z,12.21
2023-05-24T21:55:15.230Z,12.14
2023-05-24T21:57:42.015Z,12.21
2023-05-24T22:00:09.394Z,12.28
2023-05-24T22:02:37.097Z,12.26
2023-05-24T22:05:05.376Z,12.14
2023-05-24T22:07:32.259Z,12.06
2023-05-24T22:09:59.477Z,12.05
2023-05-24T22:12:26.477Z,12.05
2023-05-24T22:14:53.392Z,12.05
2023-05-24T22:17:21.973Z,12.09
2023-05-24T22:19:49.079Z,12.11
2023-05-24T22:22:19.802Z,12.05
2023-05-24T22:24:47.347Z,12.02
2023-05-24T22:27:16.342Z,11.98
2023-05-24T22:29:43.737Z,11.91
2023-05-24T22:32:10.882Z,11.92
2023-05-24T22:34:37.752Z,11.87
2023-05-24T22:37:05.050Z,11.82
2023-05-24T22:39:31.824Z,11.83
2023-05-24T22:41:58.865Z,11.79
2023-05-24T22:44:26.441Z,11.89
2023-05-24T22:46:53.944Z,11.72
2023-05-24T22:49:21.034Z,11.75
2023-05-24T22:51:53.275Z,11.76
2023-05-24T22:54:20.082Z,11.75
2023-05-24T22:56:46.891Z,11.80
2023-05-24T22:59:13.721Z,11.69
2023-05-24T23:01:40.614Z,11.60
2023-05-24T23:04:20.479Z,11.67
2023-05-24T23:06:53.403Z,11.67
2023-05-24T23:09:29.391Z,11.71
2023-05-24T23:11:58.896Z,11.77
2023-05-24T23:14:25.834Z,11.76
2023-05-24T23:16:52.688Z,11.76
2023-05-24T23:19:19.569Z,11.68
2023-05-24T23:21:46.555Z,11.65
2023-05-24T23:24:16.716Z,11.58
2023-05-24T23:26:43.963Z,11.53
2023-05-24T23:29:10.959Z,11.64
2023-05-24T23:31:37.967Z,11.55
2023-05-24T23:34:05.762Z,11.60
2023-05-24T23:36:32.651Z,11.62
2023-05-24T23:38:59.520Z,11.58
2023-05-24T23:41:26.669Z,11.60
2023-05-24T23:43:53.558Z,11.55
2023-05-24T23:46:20.603Z,11.45
2023-05-24T23:48:47.437Z,11.49
2023-05-24T23:51:14.306Z,11.50
2023-05-24T23:53:41.072Z,11.47
2023-05-24T23:56:07.868Z,11.53
2023-05-24T23:58:34.671Z,11.51
